createdAt,value
2019-01-18T00:03:18.557Z,2
2019-01-18T00:08:21.008Z,1
2019-01-18T00:13:23.493Z,1
2019-01-18T00:18:25.937Z,3
2019-01-18T00:23:28.762Z,3
2019-01-18T00:28:30.920Z,2
2019-01-18T00:33:33.331Z,2
2019-01-18T00:38:35.802Z,1
2019-01-18T00:43:38.261Z,2
2019-01-18T00:48:40.728Z,2
2019-01-18T00:53:43.222Z,2
2019-01-18T00:58:45.711Z,2
2019-01-18T01:03:48.132Z,2
2019-01-18T01:08:50.596Z,2
2019-01-18T01:13:53.060Z,2
2019-01-18T01:18:55.514Z,1
2019-01-18T01:23:57.998Z,1
2019-01-18T01:29:00.473Z,5
2019-01-18T01:34:02.936Z,2
2019-01-18T01:39:05.390Z,2
2019-01-18T01:44:07.895Z,5
2019-01-18T01:49:10.325Z,2
2019-01-18T01:54:12.782Z,2
2019-01-18T01:59:15.255Z,2
2019-01-18T02:04:17.748Z,5
2019-01-18T02:09:20.204Z,4
2019-01-18T02:14:22.663Z,2
2019-01-18T02:19:25.171Z,4
2019-01-18T02:24:27.595Z,3
2019-01-18T02:29:30.048Z,2
2019-01-18T02:34:32.554Z,2
2019-01-18T02:39:34.981Z,2
2019-01-18T02:44:37.441Z,3
2019-01-18T02:49:39.930Z,2
2019-01-18T02:54:42.347Z,4
2019-01-18T02:59:44.839Z,4
2019-01-18T03:04:47.314Z,2
2019-01-18T03:09:49.831Z,9
2019-01-18T03:14:52.214Z,2
2019-01-18T03:19:54.688Z,4
2019-01-18T03:24:57.156Z,2
2019-01-18T03:29:59.626Z,2
2019-01-18T03:35:02.130Z,4
2019-01-18T03:40:04.576Z,5
2019-01-18T03:45:07.015Z,2
2019-01-18T03:50:09.560Z,4
2019-01-18T03:55:11.967Z,8
2019-01-18T04:00:14.398Z,3
2019-01-18T04:05:16.868Z,3
2019-01-18T04:10:19.329Z,1
2019-01-18T04:15:21.820Z,1
2019-01-18T04:20:24.326Z,3
2019-01-18T04:25:26.733Z,4
2019-01-18T04:30:33.427Z,3
2019-01-18T04:35:31.665Z,3
2019-01-18T04:40:34.165Z,4
2019-01-18T04:45:36.591Z,4
2019-01-18T04:50:39.048Z,3
2019-01-18T04:55:41.541Z,3
2019-01-18T05:00:44.058Z,3
2019-01-18T05:05:51.438Z,3
2019-01-18T05:10:48.926Z,3
2019-01-18T05:15:51.405Z,4
2019-01-18T05:20:53.837Z,3
2019-01-18T05:25:56.305Z,2
2019-01-18T05:30:58.851Z,3
2019-01-18T05:36:01.323Z,4
2019-01-18T05:41:03.784Z,7
2019-01-18T05:46:06.164Z,2
2019-01-18T05:51:08.621Z,4
2019-01-18T05:56:11.111Z,4
2019-01-18T06:01:13.538Z,6
2019-01-18T06:06:16.010Z,3
2019-01-18T06:11:18.472Z,3
2019-01-18T06:16:20.926Z,3
2019-01-18T06:21:23.384Z,3
2019-01-18T06:26:25.891Z,3
2019-01-18T06:31:28.321Z,3
2019-01-18T06:36:30.790Z,4
2019-01-18T06:41:33.231Z,3
2019-01-18T06:46:35.909Z,3
2019-01-18T06:51:38.152Z,2
2019-01-18T06:56:40.619Z,3
2019-01-18T07:01:43.394Z,3
2019-01-18T07:06:45.567Z,5
2019-01-18T07:11:48.087Z,4
2019-01-18T07:16:50.533Z,4
2019-01-18T07:21:52.944Z,8
2019-01-18T07:26:55.412Z,6
2019-01-18T07:31:57.883Z,7
2019-01-18T07:37:00.341Z,4
2019-01-18T07:42:02.826Z,5
2019-01-18T07:47:05.266Z,4
2019-01-18T07:52:07.709Z,6
2019-01-18T07:57:10.231Z,2
2019-01-18T08:02:12.643Z,4
2019-01-18T08:07:15.112Z,4
2019-01-18T08:12:17.571Z,6
2019-01-18T08:17:20.140Z,4
2019-01-18T08:22:22.484Z,5
2019-01-18T08:27:24.975Z,4
2019-01-18T08:32:27.472Z,4
2019-01-18T08:37:29.912Z,3
2019-01-18T08:42:32.413Z,4
2019-01-18T08:47:34.835Z,5
2019-01-18T08:52:37.280Z,5
2019-01-18T08:57:39.739Z,5
2019-01-18T09:02:42.205Z,4
2019-01-18T09:07:44.676Z,4
2019-01-18T09:12:47.167Z,4
2019-01-18T09:17:49.596Z,5
2019-01-18T09:22:52.057Z,4
2019-01-18T09:27:54.530Z,3
2019-01-18T09:32:56.990Z,3
2019-01-18T09:37:59.453Z,4
2019-01-18T09:43:01.940Z,7
2019-01-18T09:48:04.377Z,3
2019-01-18T09:53:06.855Z,3
2019-01-18T09:58:09.283Z,3
2019-01-18T10:03:11.812Z,4
2019-01-18T10:08:14.211Z,4
2019-01-18T10:13:16.672Z,4
2019-01-18T10:18:19.155Z,4
2019-01-18T10:23:21.588Z,4
2019-01-18T10:28:24.071Z,4
2019-01-18T10:33:26.551Z,4
2019-01-18T10:38:28.990Z,5
2019-01-18T10:43:31.448Z,4
2019-01-18T10:48:33.897Z,4
2019-01-18T10:53:36.379Z,5
2019-01-18T10:58:38.908Z,4
2019-01-18T11:03:41.268Z,5
2019-01-18T11:08:43.767Z,3
2019-01-18T11:13:46.236Z,3
2019-01-18T11:18:48.658Z,4
2019-01-18T11:23:51.142Z,4
2019-01-18T11:28:53.840Z,6
2019-01-18T11:33:56.018Z,3
2019-01-18T11:38:58.447Z,5
2019-01-18T11:44:00.938Z,3
2019-01-18T11:49:03.865Z,4
2019-01-18T11:54:05.842Z,3
2019-01-18T11:59:08.358Z,4
2019-01-18T12:04:10.751Z,5
2019-01-18T12:09:13.269Z,4
2019-01-18T12:14:15.667Z,12
2019-01-18T12:19:18.146Z,6
2019-01-18T12:24:20.626Z,9
2019-01-18T12:29:23.099Z,4
2019-01-18T12:34:25.495Z,3
2019-01-18T12:39:27.959Z,6
2019-01-18T12:44:30.399Z,7
2019-01-18T12:49:32.857Z,3
2019-01-18T12:54:35.340Z,6
2019-01-18T12:59:37.774Z,3
2019-01-18T13:04:40.242Z,3
2019-01-18T13:09:42.700Z,4
2019-01-18T13:14:45.146Z,3
2019-01-18T13:19:47.718Z,2
2019-01-18T13:24:50.267Z,4
2019-01-18T13:29:52.529Z,3
2019-01-18T13:34:55.018Z,3
2019-01-18T13:39:57.450Z,2
2019-01-18T13:44:59.895Z,2
2019-01-18T13:50:07.387Z,4
2019-01-18T13:55:04.870Z,6
2019-01-18T14:00:07.330Z,4
2019-01-18T14:05:09.719Z,3
2019-01-18T14:10:12.200Z,3
2019-01-18T14:15:14.646Z,3
2019-01-18T14:20:20.841Z,4
2019-01-18T14:25:19.569Z,5
2019-01-18T14:30:22.072Z,5
2019-01-18T14:35:24.559Z,4
2019-01-18T14:40:26.940Z,3
2019-01-18T14:45:29.403Z,3
2019-01-18T14:50:31.866Z,3
2019-01-18T14:55:34.344Z,4
2019-01-18T15:05:39.268Z,3
2019-01-18T15:10:41.712Z,3
2019-01-18T15:15:44.264Z,12
2019-01-18T15:20:46.721Z,16
2019-01-18T15:25:49.075Z,10
2019-01-18T15:30:51.595Z,12
2019-01-18T15:35:53.989Z,9
2019-01-18T15:40:56.468Z,12
2019-01-18T15:45:58.933Z,8
2019-01-18T15:51:01.373Z,7
2019-01-18T15:56:03.948Z,6
2019-01-18T16:01:06.276Z,8
2019-01-18T16:06:08.730Z,11
2019-01-18T16:11:11.209Z,5
2019-01-18T16:16:13.648Z,5
2019-01-18T16:21:16.113Z,8
2019-01-18T16:26:18.571Z,5
2019-01-18T16:31:21.010Z,9
2019-01-18T16:36:23.505Z,9
2019-01-18T16:41:25.990Z,67
2019-01-18T16:46:28.536Z,24
2019-01-18T16:51:30.841Z,19
2019-01-18T16:56:33.328Z,16
2019-01-18T17:01:35.770Z,21
2019-01-18T17:06:38.230Z,12
2019-01-18T17:11:40.681Z,15
2019-01-18T17:16:44.982Z,9
2019-01-18T17:21:45.610Z,32
2019-01-18T17:26:48.057Z,44
2019-01-18T17:31:50.505Z,16
2019-01-18T17:36:52.962Z,19
2019-01-18T17:41:55.612Z,26
2019-01-18T17:46:57.865Z,31
2019-01-18T17:52:00.336Z,26
2019-01-18T17:57:02.789Z,39
2019-01-18T18:02:05.230Z,15
2019-01-18T18:07:07.721Z,26
2019-01-18T18:12:10.182Z,38
2019-01-18T18:17:12.611Z,42
2019-01-18T18:22:15.075Z,45
2019-01-18T18:27:17.564Z,32
2019-01-18T18:32:20.177Z,24
2019-01-18T18:37:22.449Z,36
2019-01-18T18:42:28.356Z,13
2019-01-18T18:47:27.359Z,22
2019-01-18T18:52:29.825Z,36
2019-01-18T18:57:32.303Z,36
2019-01-18T19:02:34.720Z,31
2019-01-18T19:07:37.186Z,21
2019-01-18T19:12:39.648Z,26
2019-01-18T19:17:42.119Z,28
2019-01-18T19:22:44.562Z,28
2019-01-18T19:27:47.017Z,36
2019-01-18T19:32:49.466Z,31
2019-01-18T19:37:51.918Z,31
2019-01-18T19:42:54.392Z,39
2019-01-18T19:47:56.895Z,38
2019-01-18T19:52:59.362Z,35
2019-01-18T19:58:01.823Z,33
2019-01-18T20:03:04.194Z,32
2019-01-18T20:08:06.666Z,28
2019-01-18T20:13:09.134Z,28
2019-01-18T20:18:11.594Z,19
2019-01-18T20:23:14.086Z,18
2019-01-18T20:28:16.546Z,13
2019-01-18T20:33:19.001Z,13
2019-01-18T20:38:21.451Z,17
2019-01-18T20:43:23.882Z,24
2019-01-18T20:48:26.328Z,23
2019-01-18T20:53:28.777Z,29
2019-01-18T20:58:31.339Z,28
2019-01-18T21:03:33.682Z,30
2019-01-18T21:08:36.164Z,35
2019-01-18T21:13:38.608Z,31
2019-01-18T21:18:41.089Z,31
2019-01-18T21:23:43.523Z,34
2019-01-18T21:28:46.026Z,44
2019-01-18T21:33:48.426Z,16
2019-01-18T21:38:50.911Z,15
2019-01-18T21:43:53.347Z,14
2019-01-18T21:48:55.811Z,15
2019-01-18T21:53:58.297Z,15
2019-01-18T21:59:00.720Z,11
2019-01-18T22:04:03.321Z,11
2019-01-18T22:09:05.626Z,9
2019-01-18T22:14:08.178Z,8
2019-01-18T22:19:10.555Z,10
2019-01-18T22:24:12.999Z,14
2019-01-18T22:29:15.527Z,13
2019-01-18T22:34:17.939Z,16
2019-01-18T22:39:20.371Z,13
2019-01-18T22:44:22.851Z,13
2019-01-18T22:49:25.287Z,12
2019-01-18T22:54:27.734Z,11
2019-01-18T22:59:30.499Z,12
2019-01-18T23:04:32.668Z,9
2019-01-18T23:09:35.127Z,9
2019-01-18T23:14:37.573Z,7
2019-01-18T23:19:40.019Z,11
2019-01-18T23:24:42.484Z,13
2019-01-18T23:29:44.950Z,13
2019-01-18T23:34:47.428Z,9
2019-01-18T23:39:49.852Z,10
2019-01-18T23:44:52.335Z,11
2019-01-18T23:49:54.764Z,8
2019-01-18T23:54:57.240Z,8
2019-01-18T23:59:59.702Z,7
